createdAt,value
2019-04-28T00:02:22.668Z,0.60
2019-04-28T00:05:25.909Z,0.60
2019-04-28T00:08:29.160Z,0.70
2019-04-28T00:11:32.404Z,0.60
2019-04-28T00:14:35.648Z,0.70
2019-04-28T00:17:38.895Z,0.50
2019-04-28T00:20:46.761Z,0.70
2019-04-28T00:24:11.402Z,0.50
2019-04-28T00:27:16.337Z,0.60
2019-04-28T00:30:19.579Z,0.50
2019-04-28T00:33:22.815Z,0.70
2019-04-28T00:36:26.060Z,0.57
2019-04-28T00:39:30.961Z,0.50
2019-04-28T00:42:35.226Z,0.60
2019-04-28T00:45:41.354Z,0.60
2019-04-28T00:48:44.688Z,0.57
2019-04-28T00:51:47.955Z,0.43
2019-04-28T00:54:52.569Z,0.60
2019-04-28T00:57:56.118Z,0.60
2019-04-28T01:01:01.966Z,0.73
2019-04-28T01:04:07.124Z,0.50
2019-04-28T01:07:11.593Z,0.73
2019-04-28T01:10:14.842Z,0.50
2019-04-28T01:13:18.090Z,0.60
2019-04-28T01:16:40.083Z,0.50
2019-04-28T01:19:53.894Z,0.57
2019-04-28T01:22:58.010Z,0.50
2019-04-28T01:26:02.809Z,0.60
2019-04-28T01:29:06.056Z,0.50
2019-04-28T01:32:26.751Z,0.50
2019-04-28T01:35:30.883Z,0.30
2019-04-28T01:38:35.080Z,0.63
2019-04-28T01:41:39.759Z,0.50
2019-04-28T01:44:43.133Z,0.53
2019-04-28T01:47:46.382Z,0.50
2019-04-28T01:50:50.090Z,0.60
2019-04-28T01:53:53.409Z,0.40
2019-04-28T01:56:58.582Z,0.50
2019-04-28T02:00:01.807Z,0.50
2019-04-28T02:03:05.130Z,0.50
2019-04-28T02:06:10.026Z,0.50
2019-04-28T02:09:15.318Z,0.57
2019-04-28T02:12:20.555Z,0.47
2019-04-28T02:15:23.799Z,0.50
2019-04-28T02:18:27.053Z,0.60
2019-04-28T02:21:34.883Z,0.50
2019-04-28T02:24:43.059Z,0.50
2019-04-28T02:27:47.299Z,0.50
2019-04-28T02:30:53.795Z,0.57
2019-04-28T02:33:56.492Z,0.50
2019-04-28T02:37:05.468Z,0.47
2019-04-28T02:40:10.682Z,0.47
2019-04-28T02:43:15.127Z,0.50
2019-04-28T02:46:20.659Z,0.60
2019-04-28T02:49:41.043Z,0.50
2019-04-28T02:52:54.975Z,0.50
2019-04-28T02:56:00.875Z,0.40
2019-04-28T02:59:04.985Z,0.47
2019-04-28T03:02:10.553Z,0.60
2019-04-28T03:05:14.052Z,0.30
2019-04-28T03:08:17.299Z,0.50
2019-04-28T03:11:20.616Z,0.40
2019-04-28T03:14:23.952Z,0.50
2019-04-28T03:17:27.194Z,0.40
2019-04-28T03:20:30.901Z,0.50
2019-04-28T03:23:34.326Z,0.50
2019-04-28T03:26:55.102Z,0.40
2019-04-28T03:30:02.855Z,0.40
2019-04-28T03:33:13.108Z,0.60
2019-04-28T03:36:15.606Z,0.47
2019-04-28T03:39:20.488Z,0.40
2019-04-28T03:42:23.595Z,0.40
2019-04-28T03:45:34.435Z,0.50
2019-04-28T03:48:37.670Z,0.40
2019-04-28T03:51:41.003Z,0.50
2019-04-28T03:54:46.811Z,0.47
2019-04-28T03:57:51.207Z,0.50
2019-04-28T04:00:54.471Z,0.47
2019-04-28T04:03:57.720Z,0.50
2019-04-28T04:07:01.552Z,0.40
2019-04-28T04:10:14.563Z,0.40
2019-04-28T04:13:25.220Z,0.50
2019-04-28T04:16:44.900Z,0.40
2019-04-28T04:19:50.323Z,0.40
2019-04-28T04:22:53.177Z,0.37
2019-04-28T04:25:56.503Z,0.40
2019-04-28T04:29:00.937Z,0.40
2019-04-28T04:32:15.635Z,0.40
2019-04-28T04:35:12.537Z,0.43
2019-04-28T04:38:15.806Z,0.50
2019-04-28T04:41:20.199Z,0.50
2019-04-28T04:44:24.507Z,0.40
2019-04-28T04:47:32.551Z,0.50
2019-04-28T04:50:34.569Z,0.40
2019-04-28T04:53:40.782Z,0.40
2019-04-28T04:56:44.171Z,0.50
2019-04-28T04:59:47.421Z,0.50
2019-04-28T05:02:55.430Z,0.40
2019-04-28T05:06:00.131Z,0.40
2019-04-28T05:09:10.213Z,0.50
2019-04-28T05:12:13.626Z,0.50
2019-04-28T05:15:20.323Z,0.40
2019-04-28T05:18:23.698Z,0.50
2019-04-28T05:21:26.939Z,0.50
2019-04-28T05:24:32.808Z,0.60
2019-04-28T05:27:36.051Z,0.60
2019-04-28T05:30:42.833Z,0.50
2019-04-28T05:33:44.335Z,0.40
2019-04-28T05:36:50.379Z,0.53
2019-04-28T05:39:54.359Z,0.50
2019-04-28T05:43:00.832Z,0.60
2019-04-28T05:46:04.318Z,0.50
2019-04-28T05:49:24.259Z,0.43
2019-04-28T05:52:40.683Z,0.33
2019-04-28T05:55:51.487Z,0.37
2019-04-28T05:59:00.597Z,0.50
2019-04-28T06:02:07.504Z,0.60
2019-04-28T06:05:10.803Z,0.40
2019-04-28T06:08:20.100Z,0.67
2019-04-28T06:11:30.947Z,0.50
2019-04-28T06:14:34.219Z,0.50
2019-04-28T06:17:37.456Z,0.60
2019-04-28T06:20:40.786Z,0.50
2019-04-28T06:23:44.051Z,0.40
2019-04-28T06:26:53.018Z,0.50
2019-04-28T06:29:56.270Z,0.40
2019-04-28T06:33:07.709Z,0.50
2019-04-28T06:36:05.379Z,0.40
2019-04-28T06:39:10.992Z,0.50
2019-04-28T06:42:14.230Z,0.47
2019-04-28T06:45:17.496Z,0.50
2019-04-28T06:48:21.643Z,0.53
2019-04-28T06:51:26.866Z,0.50
2019-04-28T06:54:30.122Z,0.50
2019-04-28T06:57:34.239Z,0.53
2019-04-28T07:00:43.221Z,0.60
2019-04-28T07:03:46.493Z,0.63
2019-04-28T07:06:50.622Z,0.50
2019-04-28T07:09:54.018Z,0.60
2019-04-28T07:12:57.278Z,6.30
2019-04-28T07:16:01.446Z,5.37
2019-04-28T07:19:04.725Z,5.37
2019-04-28T07:22:09.634Z,5.67
2019-04-28T07:25:12.883Z,5.77
2019-04-28T07:28:16.146Z,5.80
2019-04-28T07:31:20.782Z,4.70
2019-04-28T07:34:24.079Z,4.70
2019-04-28T07:37:27.339Z,5.00
2019-04-28T07:40:33.147Z,3.60
2019-04-28T07:43:36.427Z,4.50
2019-04-28T07:46:39.670Z,4.00
2019-04-28T07:49:47.933Z,3.67
2019-04-28T07:52:59.608Z,3.37
2019-04-28T07:56:02.857Z,3.53
2019-04-28T07:59:06.132Z,2.80
2019-04-28T08:02:10.382Z,3.77
2019-04-28T08:05:13.671Z,3.37
2019-04-28T08:08:16.914Z,3.27
2019-04-28T08:11:20.165Z,2.70
2019-04-28T08:14:25.440Z,3.10
2019-04-28T08:17:28.691Z,2.77
2019-04-28T08:20:31.980Z,2.73
2019-04-28T08:23:46.634Z,3.00
2019-04-28T08:26:41.114Z,2.53
2019-04-28T08:29:44.394Z,2.60
2019-04-28T08:33:00.255Z,3.10
2019-04-28T08:36:03.674Z,2.83
2019-04-28T08:39:07.780Z,2.33
2019-04-28T08:42:11.046Z,2.57
2019-04-28T08:45:20.039Z,2.80
2019-04-28T08:48:25.179Z,2.87
2019-04-28T08:51:36.830Z,2.43
2019-04-28T08:54:40.070Z,2.03
2019-04-28T08:57:43.328Z,2.50
2019-04-28T09:00:46.570Z,2.43
2019-04-28T09:03:49.810Z,2.20
2019-04-28T09:06:53.130Z,2.10
2019-04-28T09:09:56.366Z,2.00
2019-04-28T09:13:00.612Z,2.30
2019-04-28T09:16:03.855Z,2.20
2019-04-28T09:19:07.099Z,2.13
2019-04-28T09:22:10.339Z,2.13
2019-04-28T09:25:13.583Z,2.10
2019-04-28T09:28:16.815Z,2.23
2019-04-28T09:31:20.069Z,2.10
2019-04-28T09:34:28.560Z,2.00
2019-04-28T09:37:28.317Z,2.50
2019-04-28T09:40:36.480Z,2.10
2019-04-28T09:43:57.780Z,2.03
2019-04-28T09:47:01.027Z,2.10
2019-04-28T09:50:05.715Z,2.37
2019-04-28T09:53:08.957Z,2.13
2019-04-28T09:56:18.092Z,1.80
2019-04-28T09:59:21.387Z,1.93
2019-04-28T10:02:26.985Z,2.17
2019-04-28T10:05:31.211Z,1.93
2019-04-28T10:08:36.593Z,1.83
2019-04-28T10:11:40.451Z,2.10
2019-04-28T10:14:43.652Z,2.20
2019-04-28T10:17:47.905Z,2.00
2019-04-28T10:20:51.128Z,2.10
2019-04-28T10:23:54.373Z,2.00
2019-04-28T10:26:59.510Z,2.13
2019-04-28T10:30:02.991Z,2.13
2019-04-28T10:33:06.240Z,2.20
2019-04-28T10:36:09.503Z,2.23
2019-04-28T10:39:32.538Z,2.10
2019-04-28T10:42:35.792Z,2.10
2019-04-28T10:45:46.412Z,2.27
2019-04-28T10:48:49.681Z,2.10
2019-04-28T10:51:59.147Z,2.00
2019-04-28T10:54:57.889Z,2.00
2019-04-28T10:58:01.130Z,2.43
2019-04-28T11:01:04.377Z,2.37
2019-04-28T11:04:09.278Z,2.50
2019-04-28T11:07:14.149Z,2.37
2019-04-28T11:10:19.157Z,2.60
2019-04-28T11:13:23.349Z,2.53
2019-04-28T11:16:28.233Z,2.43
2019-04-28T11:19:31.475Z,2.57
2019-04-28T11:22:34.772Z,2.90
2019-04-28T11:25:38.894Z,2.73
2019-04-28T11:28:42.142Z,2.67
2019-04-28T11:31:46.270Z,2.50
2019-04-28T11:35:03.925Z,2.50
2019-04-28T11:38:07.261Z,2.50
2019-04-28T11:41:11.674Z,2.20
2019-04-28T11:44:15.068Z,2.33
2019-04-28T11:47:19.931Z,2.50
2019-04-28T11:50:24.131Z,2.50
2019-04-28T11:53:27.385Z,2.43
2019-04-28T11:56:40.735Z,2.50
2019-04-28T11:59:35.667Z,2.70
2019-04-28T12:02:38.938Z,2.40
2019-04-28T12:05:43.885Z,2.47
2019-04-28T12:08:48.503Z,2.27
2019-04-28T12:12:02.238Z,2.20
2019-04-28T12:15:19.099Z,2.77
2019-04-28T12:18:39.381Z,2.30
2019-04-28T12:21:43.741Z,2.17
2019-04-28T12:24:47.812Z,2.20
2019-04-28T12:27:51.095Z,2.30
2019-04-28T12:30:54.344Z,2.10
2019-04-28T12:33:57.583Z,2.10
2019-04-28T12:37:01.799Z,2.00
2019-04-28T12:40:06.665Z,2.20
2019-04-28T12:43:09.912Z,2.20
2019-04-28T12:46:13.179Z,2.20
2019-04-28T12:49:21.893Z,1.93
2019-04-28T12:52:26.048Z,2.27
2019-04-28T12:55:29.300Z,1.70
2019-04-28T12:58:33.491Z,1.80
2019-04-28T13:01:38.403Z,2.00
2019-04-28T13:04:43.281Z,1.80
2019-04-28T13:07:47.491Z,1.87
2019-04-28T13:10:51.671Z,1.60
2019-04-28T13:13:56.789Z,1.70
2019-04-28T13:17:00.098Z,1.73
2019-04-28T13:20:03.663Z,1.43
2019-04-28T13:23:07.803Z,1.83
2019-04-28T13:26:11.076Z,1.73
2019-04-28T13:29:14.328Z,1.50
2019-04-28T13:32:17.591Z,1.50
2019-04-28T13:35:20.985Z,1.60
2019-04-28T13:38:25.941Z,1.43
2019-04-28T13:41:30.106Z,1.20
2019-04-28T13:44:51.332Z,1.30
2019-04-28T13:47:54.583Z,1.40
2019-04-28T13:50:57.808Z,1.20
2019-04-28T13:54:04.392Z,1.43
2019-04-28T13:57:09.600Z,1.30
2019-04-28T14:00:14.465Z,1.40
2019-04-28T14:03:33.519Z,1.50
2019-04-28T14:06:38.406Z,1.30
2019-04-28T14:09:41.688Z,1.40
2019-04-28T14:12:46.614Z,1.33
2019-04-28T14:15:54.776Z,1.33
2019-04-28T14:18:58.071Z,1.30
2019-04-28T14:22:01.323Z,1.20
2019-04-28T14:25:07.361Z,1.07
2019-04-28T14:28:13.565Z,1.13
2019-04-28T14:31:17.729Z,1.17
2019-04-28T14:34:31.229Z,1.20
2019-04-28T14:37:32.920Z,1.30
2019-04-28T14:40:37.062Z,1.10
2019-04-28T14:43:40.339Z,1.10
2019-04-28T14:46:45.481Z,1.10
2019-04-28T14:49:48.812Z,1.10
2019-04-28T14:52:52.084Z,1.10
2019-04-28T14:56:00.078Z,0.90
2019-04-28T14:59:04.397Z,1.40
2019-04-28T15:02:15.487Z,1.20
2019-04-28T15:05:26.309Z,0.80
2019-04-28T15:08:43.925Z,1.00
2019-04-28T15:11:54.752Z,0.80
2019-04-28T15:14:58.031Z,0.90
2019-04-28T15:18:01.371Z,1.07
2019-04-28T15:21:04.726Z,1.30
2019-04-28T15:24:08.022Z,0.87
2019-04-28T15:27:11.283Z,0.80
2019-04-28T15:30:14.567Z,1.00
2019-04-28T15:33:17.859Z,1.20
2019-04-28T15:36:21.099Z,1.00
2019-04-28T15:39:24.366Z,0.60
2019-04-28T15:42:29.175Z,0.80
2019-04-28T15:45:32.410Z,0.90
2019-04-28T15:48:36.704Z,0.90
2019-04-28T15:51:39.996Z,0.70
2019-04-28T15:54:43.315Z,0.90
2019-04-28T15:57:46.546Z,0.90
2019-04-28T16:00:49.795Z,0.87
2019-04-28T16:03:53.033Z,0.90
2019-04-28T16:06:56.275Z,0.90
2019-04-28T16:09:59.531Z,0.67
2019-04-28T16:13:02.791Z,0.87
2019-04-28T16:16:07.054Z,0.60
2019-04-28T16:19:13.252Z,1.00
2019-04-28T16:22:16.496Z,0.80
2019-04-28T16:25:19.754Z,0.90
2019-04-28T16:28:23.041Z,0.80
2019-04-28T16:31:26.282Z,0.90
2019-04-28T16:34:31.485Z,0.77
2019-04-28T16:37:39.098Z,1.20
2019-04-28T16:40:40.396Z,0.90
2019-04-28T16:43:45.264Z,0.90
2019-04-28T16:46:48.516Z,1.33
2019-04-28T16:49:57.488Z,1.10
2019-04-28T16:53:01.604Z,1.40
2019-04-28T16:56:06.487Z,1.10
2019-04-28T16:59:27.669Z,0.97
2019-04-28T17:02:34.666Z,1.17
2019-04-28T17:05:37.906Z,1.20
2019-04-28T17:08:44.544Z,1.30
2019-04-28T17:11:49.978Z,1.10
2019-04-28T17:14:53.210Z,1.10
2019-04-28T17:17:56.470Z,1.30
2019-04-28T17:20:59.742Z,1.60
2019-04-28T17:24:13.070Z,1.43
2019-04-28T17:27:16.315Z,1.03
2019-04-28T17:30:20.131Z,1.20
2019-04-28T17:33:24.294Z,1.27
2019-04-28T17:36:27.606Z,1.17
2019-04-28T17:39:31.415Z,1.10
2019-04-28T17:42:34.655Z,1.13
2019-04-28T17:45:38.788Z,1.20
2019-04-28T17:48:56.094Z,1.00
2019-04-28T17:51:59.345Z,1.30
2019-04-28T17:55:04.810Z,1.30
2019-04-28T17:58:09.860Z,1.23
2019-04-28T18:01:38.601Z,1.23
2019-04-28T18:04:43.495Z,1.10
2019-04-28T18:07:48.306Z,1.10
2019-04-28T18:10:51.558Z,1.50
2019-04-28T18:13:54.820Z,1.00
2019-04-28T18:17:16.160Z,1.10
2019-04-28T18:20:19.446Z,1.10
2019-04-28T18:23:38.094Z,1.20
2019-04-28T18:26:57.603Z,1.20
2019-04-28T18:30:10.070Z,1.00
2019-04-28T18:33:46.146Z,1.10
2019-04-28T18:37:11.266Z,1.10
2019-04-28T18:40:30.666Z,1.00
2019-04-28T18:43:47.319Z,1.30
2019-04-28T18:46:52.188Z,1.47
2019-04-28T18:49:58.694Z,1.10
2019-04-28T18:53:03.830Z,1.17
2019-04-28T18:56:08.043Z,1.17
2019-04-28T18:59:11.296Z,1.20
2019-04-28T19:02:25.331Z,1.10
2019-04-28T19:05:32.170Z,0.90
2019-04-28T19:08:49.063Z,0.83
2019-04-28T19:11:52.279Z,1.10
2019-04-28T19:14:58.060Z,1.50
2019-04-28T19:18:03.066Z,1.10
2019-04-28T19:21:06.342Z,1.00
2019-04-28T19:24:11.257Z,1.17
2019-04-28T19:27:14.578Z,1.20
2019-04-28T19:30:17.839Z,1.00
2019-04-28T19:33:21.091Z,1.07
2019-04-28T19:36:24.392Z,1.10
2019-04-28T19:39:28.257Z,0.90
2019-04-28T19:42:34.084Z,1.17
2019-04-28T19:45:45.924Z,1.43
2019-04-28T19:48:49.722Z,1.33
2019-04-28T19:51:54.970Z,1.10
2019-04-28T19:55:04.796Z,1.30
2019-04-28T19:58:13.458Z,1.00
2019-04-28T20:01:19.406Z,1.30
2019-04-28T20:04:23.647Z,1.00
2019-04-28T20:07:27.012Z,1.20
2019-04-28T20:10:39.369Z,1.07
2019-04-28T20:13:42.669Z,1.10
2019-04-28T20:16:45.984Z,1.00
2019-04-28T20:19:54.964Z,1.20
2019-04-28T20:23:00.824Z,1.30
2019-04-28T20:26:04.067Z,1.10
2019-04-28T20:29:07.316Z,1.10
2019-04-28T20:32:16.868Z,1.10
2019-04-28T20:35:28.596Z,1.10
2019-04-28T20:38:33.248Z,1.20
2019-04-28T20:41:36.673Z,1.20
2019-04-28T20:44:39.991Z,1.30
2019-04-28T20:47:43.360Z,1.23
2019-04-28T20:50:46.729Z,1.10
2019-04-28T20:53:50.223Z,1.20
2019-04-28T20:56:53.770Z,1.20
2019-04-28T20:59:59.012Z,0.93
2019-04-28T21:03:02.707Z,1.23
2019-04-28T21:06:15.824Z,1.00
2019-04-28T21:09:19.150Z,1.13
2019-04-28T21:12:25.175Z,1.10
2019-04-28T21:15:29.327Z,1.10
2019-04-28T21:18:32.569Z,1.10
2019-04-28T21:21:36.835Z,1.10
2019-04-28T21:24:40.070Z,1.20
2019-04-28T21:27:44.177Z,1.40
2019-04-28T21:30:47.431Z,1.13
2019-04-28T21:33:51.661Z,1.23
2019-04-28T21:36:54.896Z,1.17
2019-04-28T21:39:59.093Z,1.10
2019-04-28T21:43:06.672Z,1.10
2019-04-28T21:46:17.494Z,1.10
2019-04-28T21:49:22.371Z,1.07
2019-04-28T21:52:26.598Z,1.30
2019-04-28T21:55:29.850Z,1.10
2019-04-28T21:58:33.773Z,1.10
2019-04-28T22:01:37.219Z,1.17
2019-04-28T22:04:46.820Z,1.00
2019-04-28T22:07:55.041Z,1.03
2019-04-28T22:10:58.280Z,1.00
2019-04-28T22:14:01.526Z,1.17
2019-04-28T22:17:04.751Z,1.00
2019-04-28T22:20:07.996Z,1.10
2019-04-28T22:23:18.568Z,1.10
2019-04-28T22:26:35.723Z,1.20
2019-04-28T22:29:38.970Z,1.20
2019-04-28T22:32:42.211Z,0.90
2019-04-28T22:35:45.458Z,0.90
2019-04-28T22:38:56.796Z,1.30
2019-04-28T22:41:59.430Z,0.97
2019-04-28T22:45:07.305Z,1.20
2019-04-28T22:48:16.089Z,1.30
2019-04-28T22:51:19.344Z,0.90
2019-04-28T22:54:25.254Z,1.23
2019-04-28T23:48:35.847Z,1.00
2019-04-28T23:59:44.087Z,1.10
